sensor_id;sensor_type;location;lat;lon;timestamp;P1;durP1;ratioP1;P2;durP2;ratioP2
4317;SDS011;2172;53.576;9.934;2023-04-15T00:00:46;8.33;;;5.40;;
4317;SDS011;2172;53.576;9.934;2023-04-15T00:03:15;6.57;;;5.77;;
4317;SDS011;2172;53.576;9.934;2023-04-15T00:05:43;7.33;;;5.50;;
4317;SDS011;2172;53.576;9.934;2023-04-15T00:08:10;7.37;;;6.20;;
4317;SDS011;2172;53.576;9.934;2023-04-15T00:10:38;7.43;;;6.27;;
4317;SDS011;2172;53.576;9.934;2023-04-15T00:13:08;9.20;;;6.83;;
4317;SDS011;2172;53.576;9.934;2023-04-15T00:15:37;7.60;;;6.10;;
4317;SDS011;2172;53.576;9.934;2023-04-15T00:18:04;5.93;;;4.40;;
4317;SDS011;2172;53.576;9.934;2023-04-15T00:20:33;7.13;;;5.87;;
4317;SDS011;2172;53.576;9.934;2023-04-15T00:23:01;8.93;;;6.17;;
4317;SDS011;2172;53.576;9.934;2023-04-15T00:25:29;7.53;;;6.27;;
4317;SDS011;2172;53.576;9.934;2023-04-15T00:27:57;10.10;;;6.13;;
4317;SDS011;2172;53.576;9.934;2023-04-15T00:30:24;8.03;;;5.80;;
4317;SDS011;2172;53.576;9.934;2023-04-15T00:32:53;8.70;;;6.30;;
4317;SDS011;2172;53.576;9.934;2023-04-15T00:35:21;9.07;;;6.33;;
4317;SDS011;2172;53.576;9.934;2023-04-15T00:37:49;8.37;;;6.40;;
4317;SDS011;2172;53.576;9.934;2023-04-15T00:40:17;7.47;;;6.40;;
4317;SDS011;2172;53.576;9.934;2023-04-15T00:42:48;6.50;;;5.63;;
4317;SDS011;2172;53.576;9.934;2023-04-15T00:45:16;8.70;;;6.73;;
4317;SDS011;2172;53.576;9.934;2023-04-15T00:47:44;8.87;;;6.73;;
4317;SDS011;2172;53.576;9.934;2023-04-15T00:50:13;7.73;;;6.00;;
4317;SDS011;2172;53.576;9.934;2023-04-15T00:52:40;10.60;;;7.37;;
4317;SDS011;2172;53.576;9.934;2023-04-15T00:55:09;8.60;;;6.90;;
4317;SDS011;2172;53.576;9.934;2023-04-15T00:57:37;7.67;;;6.27;;
4317;SDS011;2172;53.576;9.934;2023-04-15T01:00:06;8.57;;;7.37;;
4317;SDS011;2172;53.576;9.934;2023-04-15T01:02:35;12.80;;;7.80;;
4317;SDS011;2172;53.576;9.934;2023-04-15T01:05:03;8.87;;;7.30;;
4317;SDS011;2172;53.576;9.934;2023-04-15T01:07:33;11.33;;;7.90;;
4317;SDS011;2172;53.576;9.934;2023-04-15T01:10:01;10.47;;;6.90;;
4317;SDS011;2172;53.576;9.934;2023-04-15T01:12:29;11.40;;;8.20;;
4317;SDS011;2172;53.576;9.934;2023-04-15T01:14:58;11.27;;;8.70;;
4317;SDS011;2172;53.576;9.934;2023-04-15T01:17:26;10.30;;;8.03;;
4317;SDS011;2172;53.576;9.934;2023-04-15T01:19:54;9.50;;;7.57;;
4317;SDS011;2172;53.576;9.934;2023-04-15T01:22:23;12.27;;;8.53;;
4317;SDS011;2172;53.576;9.934;2023-04-15T01:24:56;11.50;;;7.67;;
4317;SDS011;2172;53.576;9.934;2023-04-15T01:27:30;13.10;;;8.40;;
4317;SDS011;2172;53.576;9.934;2023-04-15T01:29:59;12.43;;;8.20;;
4317;SDS011;2172;53.576;9.934;2023-04-15T01:32:30;11.20;;;8.53;;
4317;SDS011;2172;53.576;9.934;2023-04-15T01:34:58;11.20;;;8.43;;
4317;SDS011;2172;53.576;9.934;2023-04-15T01:37:25;13.13;;;9.30;;
4317;SDS011;2172;53.576;9.934;2023-04-15T01:39:53;12.63;;;9.20;;
4317;SDS011;2172;53.576;9.934;2023-04-15T01:42:22;12.80;;;9.37;;
4317;SDS011;2172;53.576;9.934;2023-04-15T01:44:51;11.17;;;8.67;;
4317;SDS011;2172;53.576;9.934;2023-04-15T01:47:19;12.03;;;9.30;;
4317;SDS011;2172;53.576;9.934;2023-04-15T01:49:46;13.70;;;9.50;;
4317;SDS011;2172;53.576;9.934;2023-04-15T01:52:14;17.30;;;9.67;;
4317;SDS011;2172;53.576;9.934;2023-04-15T01:54:41;11.83;;;8.67;;
4317;SDS011;2172;53.576;9.934;2023-04-15T01:57:10;14.37;;;9.40;;
4317;SDS011;2172;53.576;9.934;2023-04-15T01:59:38;13.53;;;9.87;;
4317;SDS011;2172;53.576;9.934;2023-04-15T02:02:07;14.93;;;10.27;;
4317;SDS011;2172;53.576;9.934;2023-04-15T02:04:35;11.53;;;9.57;;
4317;SDS011;2172;53.576;9.934;2023-04-15T02:07:02;14.87;;;10.00;;
4317;SDS011;2172;53.576;9.934;2023-04-15T02:09:30;15.10;;;10.83;;
4317;SDS011;2172;53.576;9.934;2023-04-15T02:11:58;16.30;;;10.80;;
4317;SDS011;2172;53.576;9.934;2023-04-15T02:14:27;13.27;;;9.77;;
4317;SDS011;2172;53.576;9.934;2023-04-15T02:16:54;10.97;;;9.43;;
4317;SDS011;2172;53.576;9.934;2023-04-15T02:19:23;13.47;;;10.20;;
4317;SDS011;2172;53.576;9.934;2023-04-15T02:21:51;13.70;;;10.17;;
4317;SDS011;2172;53.576;9.934;2023-04-15T02:24:18;17.00;;;11.13;;
4317;SDS011;2172;53.576;9.934;2023-04-15T02:26:46;14.00;;;10.03;;
4317;SDS011;2172;53.576;9.934;2023-04-15T02:29:14;12.77;;;9.33;;
4317;SDS011;2172;53.576;9.934;2023-04-15T02:31:41;12.97;;;9.17;;
4317;SDS011;2172;53.576;9.934;2023-04-15T02:34:09;11.93;;;9.23;;
4317;SDS011;2172;53.576;9.934;2023-04-15T02:36:44;13.90;;;10.47;;
4317;SDS011;2172;53.576;9.934;2023-04-15T02:39:14;13.80;;;9.90;;
4317;SDS011;2172;53.576;9.934;2023-04-15T02:41:43;15.83;;;10.90;;
4317;SDS011;2172;53.576;9.934;2023-04-15T02:44:12;14.63;;;9.50;;
4317;SDS011;2172;53.576;9.934;2023-04-15T02:46:42;14.20;;;9.97;;
4317;SDS011;2172;53.576;9.934;2023-04-15T02:49:10;16.13;;;10.63;;
4317;SDS011;2172;53.576;9.934;2023-04-15T02:51:38;16.30;;;12.23;;
4317;SDS011;2172;53.576;9.934;2023-04-15T02:54:07;15.23;;;10.87;;
4317;SDS011;2172;53.576;9.934;2023-04-15T02:56:35;15.50;;;10.37;;
4317;SDS011;2172;53.576;9.934;2023-04-15T02:59:02;17.60;;;12.20;;
4317;SDS011;2172;53.576;9.934;2023-04-15T03:01:30;17.23;;;12.00;;
4317;SDS011;2172;53.576;9.934;2023-04-15T03:03:57;15.07;;;11.00;;
4317;SDS011;2172;53.576;9.934;2023-04-15T03:06:25;16.00;;;10.80;;
4317;SDS011;2172;53.576;9.934;2023-04-15T03:08:52;16.37;;;11.37;;
4317;SDS011;2172;53.576;9.934;2023-04-15T03:11:23;17.57;;;11.97;;
4317;SDS011;2172;53.576;9.934;2023-04-15T03:13:51;15.80;;;11.67;;
4317;SDS011;2172;53.576;9.934;2023-04-15T03:16:28;17.63;;;11.57;;
4317;SDS011;2172;53.576;9.934;2023-04-15T03:18:56;17.90;;;11.80;;
4317;SDS011;2172;53.576;9.934;2023-04-15T03:21:24;16.33;;;12.07;;
4317;SDS011;2172;53.576;9.934;2023-04-15T03:23:52;17.77;;;11.77;;
4317;SDS011;2172;53.576;9.934;2023-04-15T03:26:25;17.70;;;12.00;;
4317;SDS011;2172;53.576;9.934;2023-04-15T03:28:56;18.27;;;12.37;;
4317;SDS011;2172;53.576;9.934;2023-04-15T03:31:24;14.87;;;11.03;;
4317;SDS011;2172;53.576;9.934;2023-04-15T03:33:52;16.40;;;12.33;;
4317;SDS011;2172;53.576;9.934;2023-04-15T03:36:19;19.40;;;13.60;;
4317;SDS011;2172;53.576;9.934;2023-04-15T03:38:47;20.37;;;13.20;;
4317;SDS011;2172;53.576;9.934;2023-04-15T03:41:14;20.37;;;13.73;;
4317;SDS011;2172;53.576;9.934;2023-04-15T03:43:43;19.90;;;12.67;;
4317;SDS011;2172;53.576;9.934;2023-04-15T03:46:11;22.67;;;14.67;;
4317;SDS011;2172;53.576;9.934;2023-04-15T03:48:38;23.13;;;14.87;;
4317;SDS011;2172;53.576;9.934;2023-04-15T03:51:06;20.20;;;13.53;;
4317;SDS011;2172;53.576;9.934;2023-04-15T03:53:33;20.97;;;15.00;;
4317;SDS011;2172;53.576;9.934;2023-04-15T03:56:01;19.80;;;14.40;;
4317;SDS011;2172;53.576;9.934;2023-04-15T03:58:28;23.70;;;15.93;;
4317;SDS011;2172;53.576;9.934;2023-04-15T04:00:57;22.67;;;15.13;;
4317;SDS011;2172;53.576;9.934;2023-04-15T04:03:24;25.60;;;15.80;;
4317;SDS011;2172;53.576;9.934;2023-04-15T04:05:52;26.93;;;17.53;;
4317;SDS011;2172;53.576;9.934;2023-04-15T04:08:19;27.73;;;17.50;;
4317;SDS011;2172;53.576;9.934;2023-04-15T04:10:47;24.90;;;16.77;;
4317;SDS011;2172;53.576;9.934;2023-04-15T04:13:14;25.83;;;16.90;;
4317;SDS011;2172;53.576;9.934;2023-04-15T04:15:42;28.97;;;17.00;;
4317;SDS011;2172;53.576;9.934;2023-04-15T04:18:11;28.40;;;17.37;;
4317;SDS011;2172;53.576;9.934;2023-04-15T04:20:38;29.10;;;18.00;;
4317;SDS011;2172;53.576;9.934;2023-04-15T04:23:06;25.77;;;17.20;;
4317;SDS011;2172;53.576;9.934;2023-04-15T04:25:33;29.37;;;18.07;;
4317;SDS011;2172;53.576;9.934;2023-04-15T04:28:01;26.40;;;18.70;;
4317;SDS011;2172;53.576;9.934;2023-04-15T04:30:28;28.67;;;17.00;;
4317;SDS011;2172;53.576;9.934;2023-04-15T04:32:56;27.20;;;17.67;;
4317;SDS011;2172;53.576;9.934;2023-04-15T04:35:25;26.97;;;17.87;;
4317;SDS011;2172;53.576;9.934;2023-04-15T04:37:52;28.10;;;18.40;;
4317;SDS011;2172;53.576;9.934;2023-04-15T04:40:20;26.63;;;17.00;;
4317;SDS011;2172;53.576;9.934;2023-04-15T04:42:47;31.30;;;19.60;;
4317;SDS011;2172;53.576;9.934;2023-04-15T04:45:15;34.27;;;21.03;;
4317;SDS011;2172;53.576;9.934;2023-04-15T04:47:42;34.03;;;19.10;;
4317;SDS011;2172;53.576;9.934;2023-04-15T04:50:10;32.87;;;21.33;;
4317;SDS011;2172;53.576;9.934;2023-04-15T04:52:39;34.27;;;20.60;;
4317;SDS011;2172;53.576;9.934;2023-04-15T04:55:07;34.50;;;21.30;;
4317;SDS011;2172;53.576;9.934;2023-04-15T04:57:34;40.43;;;23.27;;
4317;SDS011;2172;53.576;9.934;2023-04-15T05:00:04;47.30;;;25.20;;
4317;SDS011;2172;53.576;9.934;2023-04-15T05:02:32;35.20;;;21.10;;
4317;SDS011;2172;53.576;9.934;2023-04-15T05:05:00;41.70;;;24.00;;
4317;SDS011;2172;53.576;9.934;2023-04-15T05:07:27;40.13;;;25.40;;
4317;SDS011;2172;53.576;9.934;2023-04-15T05:09:56;41.97;;;25.00;;
4317;SDS011;2172;53.576;9.934;2023-04-15T05:12:24;44.00;;;24.67;;
4317;SDS011;2172;53.576;9.934;2023-04-15T05:14:51;42.23;;;23.40;;
4317;SDS011;2172;53.576;9.934;2023-04-15T05:17:19;44.97;;;24.83;;
4317;SDS011;2172;53.576;9.934;2023-04-15T05:19:46;49.87;;;25.83;;
4317;SDS011;2172;53.576;9.934;2023-04-15T05:22:14;39.80;;;24.63;;
4317;SDS011;2172;53.576;9.934;2023-04-15T05:24:41;43.20;;;25.30;;
4317;SDS011;2172;53.576;9.934;2023-04-15T05:27:10;49.13;;;25.60;;
4317;SDS011;2172;53.576;9.934;2023-04-15T05:29:38;46.70;;;26.67;;
4317;SDS011;2172;53.576;9.934;2023-04-15T05:32:05;47.03;;;27.00;;
4317;SDS011;2172;53.576;9.934;2023-04-15T05:34:33;47.90;;;26.87;;
4317;SDS011;2172;53.576;9.934;2023-04-15T05:37:00;50.37;;;27.33;;
4317;SDS011;2172;53.576;9.934;2023-04-15T05:39:28;49.10;;;27.57;;
4317;SDS011;2172;53.576;9.934;2023-04-15T05:41:56;47.57;;;28.07;;
4317;SDS011;2172;53.576;9.934;2023-04-15T05:44:26;51.73;;;30.13;;
4317;SDS011;2172;53.576;9.934;2023-04-15T05:46:53;47.90;;;27.63;;
4317;SDS011;2172;53.576;9.934;2023-04-15T05:49:21;50.20;;;28.23;;
4317;SDS011;2172;53.576;9.934;2023-04-15T05:51:48;51.27;;;28.07;;
4317;SDS011;2172;53.576;9.934;2023-04-15T05:54:16;51.60;;;29.43;;
4317;SDS011;2172;53.576;9.934;2023-04-15T05:56:43;53.40;;;29.90;;
4317;SDS011;2172;53.576;9.934;2023-04-15T05:59:11;50.63;;;29.93;;
4317;SDS011;2172;53.576;9.934;2023-04-15T06:01:40;56.60;;;31.60;;
4317;SDS011;2172;53.576;9.934;2023-04-15T06:04:07;57.73;;;32.10;;
4317;SDS011;2172;53.576;9.934;2023-04-15T06:06:35;57.40;;;30.57;;
4317;SDS011;2172;53.576;9.934;2023-04-15T06:09:03;54.43;;;32.40;;
4317;SDS011;2172;53.576;9.934;2023-04-15T06:11:31;57.43;;;32.07;;
4317;SDS011;2172;53.576;9.934;2023-04-15T06:13:58;56.10;;;30.83;;
4317;SDS011;2172;53.576;9.934;2023-04-15T06:16:25;59.10;;;32.73;;
4317;SDS011;2172;53.576;9.934;2023-04-15T06:18:54;53.50;;;31.83;;
4317;SDS011;2172;53.576;9.934;2023-04-15T06:21:22;61.07;;;35.30;;
4317;SDS011;2172;53.576;9.934;2023-04-15T06:23:49;52.90;;;28.23;;
4317;SDS011;2172;53.576;9.934;2023-04-15T06:26:17;54.50;;;31.07;;
4317;SDS011;2172;53.576;9.934;2023-04-15T06:28:45;56.80;;;33.27;;
4317;SDS011;2172;53.576;9.934;2023-04-15T06:31:12;63.87;;;36.23;;
4317;SDS011;2172;53.576;9.934;2023-04-15T06:33:40;65.27;;;35.30;;
4317;SDS011;2172;53.576;9.934;2023-04-15T06:36:09;56.20;;;35.53;;
4317;SDS011;2172;53.576;9.934;2023-04-15T06:38:37;64.60;;;34.87;;
4317;SDS011;2172;53.576;9.934;2023-04-15T06:41:04;64.07;;;38.70;;
4317;SDS011;2172;53.576;9.934;2023-04-15T06:43:32;58.17;;;36.30;;
4317;SDS011;2172;53.576;9.934;2023-04-15T06:46:00;57.53;;;31.60;;
4317;SDS011;2172;53.576;9.934;2023-04-15T06:48:28;63.63;;;38.53;;
4317;SDS011;2172;53.576;9.934;2023-04-15T06:50:55;64.00;;;33.80;;
4317;SDS011;2172;53.576;9.934;2023-04-15T06:53:24;65.60;;;37.90;;
4317;SDS011;2172;53.576;9.934;2023-04-15T06:55:52;65.33;;;38.20;;
4317;SDS011;2172;53.576;9.934;2023-04-15T06:58:20;59.90;;;37.07;;
4317;SDS011;2172;53.576;9.934;2023-04-15T07:00:47;82.30;;;40.33;;
4317;SDS011;2172;53.576;9.934;2023-04-15T07:03:15;78.30;;;41.63;;
4317;SDS011;2172;53.576;9.934;2023-04-15T07:05:43;82.47;;;42.37;;
4317;SDS011;2172;53.576;9.934;2023-04-15T07:08:10;71.60;;;39.00;;
4317;SDS011;2172;53.576;9.934;2023-04-15T07:10:39;74.30;;;44.53;;
4317;SDS011;2172;53.576;9.934;2023-04-15T07:13:07;69.80;;;40.17;;
4317;SDS011;2172;53.576;9.934;2023-04-15T07:15:34;83.53;;;44.27;;
4317;SDS011;2172;53.576;9.934;2023-04-15T07:18:02;70.37;;;42.87;;
4317;SDS011;2172;53.576;9.934;2023-04-15T07:20:29;67.30;;;41.60;;
4317;SDS011;2172;53.576;9.934;2023-04-15T07:22:57;71.70;;;42.07;;
4317;SDS011;2172;53.576;9.934;2023-04-15T07:25:24;78.77;;;45.40;;
4317;SDS011;2172;53.576;9.934;2023-04-15T07:27:53;77.63;;;42.73;;
4317;SDS011;2172;53.576;9.934;2023-04-15T07:30:21;73.53;;;40.83;;
4317;SDS011;2172;53.576;9.934;2023-04-15T07:32:48;75.43;;;45.70;;
4317;SDS011;2172;53.576;9.934;2023-04-15T07:35:16;83.67;;;46.10;;
4317;SDS011;2172;53.576;9.934;2023-04-15T07:37:45;78.30;;;44.03;;
4317;SDS011;2172;53.576;9.934;2023-04-15T07:40:13;76.33;;;45.63;;
4317;SDS011;2172;53.576;9.934;2023-04-15T07:42:40;74.43;;;44.33;;
4317;SDS011;2172;53.576;9.934;2023-04-15T07:45:10;79.70;;;46.43;;
4317;SDS011;2172;53.576;9.934;2023-04-15T07:47:38;85.33;;;47.10;;
4317;SDS011;2172;53.576;9.934;2023-04-15T07:50:06;81.13;;;46.60;;
4317;SDS011;2172;53.576;9.934;2023-04-15T07:52:34;82.73;;;45.77;;
4317;SDS011;2172;53.576;9.934;2023-04-15T07:55:04;77.27;;;45.07;;
4317;SDS011;2172;53.576;9.934;2023-04-15T07:57:32;75.53;;;46.17;;
4317;SDS011;2172;53.576;9.934;2023-04-15T08:00:00;74.80;;;42.43;;
4317;SDS011;2172;53.576;9.934;2023-04-15T08:02:39;78.37;;;44.73;;
4317;SDS011;2172;53.576;9.934;2023-04-15T08:05:07;75.10;;;44.70;;
4317;SDS011;2172;53.576;9.934;2023-04-15T08:07:35;82.80;;;46.37;;
4317;SDS011;2172;53.576;9.934;2023-04-15T08:10:03;76.57;;;45.67;;
4317;SDS011;2172;53.576;9.934;2023-04-15T08:12:31;66.60;;;40.93;;
4317;SDS011;2172;53.576;9.934;2023-04-15T08:14:58;77.97;;;42.70;;
4317;SDS011;2172;53.576;9.934;2023-04-15T08:17:27;77.30;;;44.43;;
4317;SDS011;2172;53.576;9.934;2023-04-15T08:19:56;72.93;;;46.30;;
4317;SDS011;2172;53.576;9.934;2023-04-15T08:22:24;76.27;;;44.17;;
4317;SDS011;2172;53.576;9.934;2023-04-15T08:24:53;72.20;;;45.27;;
4317;SDS011;2172;53.576;9.934;2023-04-15T08:27:20;70.77;;;45.17;;
4317;SDS011;2172;53.576;9.934;2023-04-15T08:29:48;69.83;;;44.17;;
4317;SDS011;2172;53.576;9.934;2023-04-15T08:32:15;73.50;;;44.27;;
4317;SDS011;2172;53.576;9.934;2023-04-15T08:34:43;73.40;;;44.30;;
4317;SDS011;2172;53.576;9.934;2023-04-15T08:37:12;67.67;;;41.97;;
4317;SDS011;2172;53.576;9.934;2023-04-15T08:39:39;64.47;;;41.33;;
4317;SDS011;2172;53.576;9.934;2023-04-15T08:42:10;67.57;;;43.23;;
4317;SDS011;2172;53.576;9.934;2023-04-15T08:44:42;69.53;;;43.70;;
4317;SDS011;2172;53.576;9.934;2023-04-15T08:47:09;66.90;;;42.20;;
4317;SDS011;2172;53.576;9.934;2023-04-15T08:49:40;64.57;;;39.97;;
4317;SDS011;2172;53.576;9.934;2023-04-15T08:52:08;65.40;;;41.33;;
4317;SDS011;2172;53.576;9.934;2023-04-15T08:54:37;70.03;;;42.93;;
4317;SDS011;2172;53.576;9.934;2023-04-15T08:57:05;68.27;;;40.00;;
4317;SDS011;2172;53.576;9.934;2023-04-15T08:59:32;68.03;;;40.73;;
4317;SDS011;2172;53.576;9.934;2023-04-15T09:02:00;64.67;;;42.73;;
4317;SDS011;2172;53.576;9.934;2023-04-15T09:04:28;64.83;;;41.57;;
4317;SDS011;2172;53.576;9.934;2023-04-15T09:06:56;65.33;;;41.10;;
4317;SDS011;2172;53.576;9.934;2023-04-15T09:09:23;69.93;;;42.80;;
4317;SDS011;2172;53.576;9.934;2023-04-15T09:11:52;60.40;;;38.17;;
4317;SDS011;2172;53.576;9.934;2023-04-15T09:14:20;62.97;;;40.60;;
4317;SDS011;2172;53.576;9.934;2023-04-15T09:16:55;68.77;;;41.83;;
4317;SDS011;2172;53.576;9.934;2023-04-15T09:19:23;70.07;;;41.33;;
4317;SDS011;2172;53.576;9.934;2023-04-15T09:21:51;71.60;;;42.97;;
4317;SDS011;2172;53.576;9.934;2023-04-15T09:24:20;70.17;;;44.50;;
4317;SDS011;2172;53.576;9.934;2023-04-15T09:26:50;60.73;;;40.10;;
4317;SDS011;2172;53.576;9.934;2023-04-15T09:29:20;68.70;;;42.30;;
4317;SDS011;2172;53.576;9.934;2023-04-15T09:31:51;67.13;;;41.30;;
4317;SDS011;2172;53.576;9.934;2023-04-15T09:34:18;70.23;;;42.10;;
4317;SDS011;2172;53.576;9.934;2023-04-15T09:36:53;67.33;;;40.97;;
4317;SDS011;2172;53.576;9.934;2023-04-15T09:39:22;63.40;;;41.57;;
4317;SDS011;2172;53.576;9.934;2023-04-15T09:42:04;63.00;;;40.40;;
4317;SDS011;2172;53.576;9.934;2023-04-15T09:44:32;63.53;;;40.17;;
4317;SDS011;2172;53.576;9.934;2023-04-15T09:47:00;68.10;;;42.13;;
4317;SDS011;2172;53.576;9.934;2023-04-15T09:49:27;64.07;;;41.80;;
4317;SDS011;2172;53.576;9.934;2023-04-15T09:51:58;61.83;;;40.20;;
4317;SDS011;2172;53.576;9.934;2023-04-15T09:54:31;63.37;;;38.97;;
4317;SDS011;2172;53.576;9.934;2023-04-15T09:57:05;59.37;;;40.93;;
4317;SDS011;2172;53.576;9.934;2023-04-15T09:59:33;60.23;;;39.40;;
4317;SDS011;2172;53.576;9.934;2023-04-15T10:02:01;62.63;;;39.77;;
4317;SDS011;2172;53.576;9.934;2023-04-15T10:04:31;61.90;;;40.90;;
4317;SDS011;2172;53.576;9.934;2023-04-15T10:07:01;60.40;;;40.47;;
4317;SDS011;2172;53.576;9.934;2023-04-15T10:09:30;56.73;;;37.43;;
4317;SDS011;2172;53.576;9.934;2023-04-15T10:11:58;56.50;;;35.83;;
4317;SDS011;2172;53.576;9.934;2023-04-15T10:14:28;58.53;;;37.50;;
4317;SDS011;2172;53.576;9.934;2023-04-15T10:17:00;51.87;;;37.00;;
4317;SDS011;2172;53.576;9.934;2023-04-15T10:19:29;54.77;;;35.63;;
4317;SDS011;2172;53.576;9.934;2023-04-15T10:21:58;52.67;;;36.70;;
4317;SDS011;2172;53.576;9.934;2023-04-15T10:24:26;59.27;;;34.23;;
4317;SDS011;2172;53.576;9.934;2023-04-15T10:26:54;48.67;;;35.90;;
4317;SDS011;2172;53.576;9.934;2023-04-15T10:29:23;52.13;;;34.00;;
4317;SDS011;2172;53.576;9.934;2023-04-15T10:31:53;45.17;;;33.13;;
4317;SDS011;2172;53.576;9.934;2023-04-15T10:34:21;46.10;;;31.67;;
4317;SDS011;2172;53.576;9.934;2023-04-15T10:36:49;51.70;;;33.83;;
4317;SDS011;2172;53.576;9.934;2023-04-15T10:39:37;46.60;;;34.03;;
4317;SDS011;2172;53.576;9.934;2023-04-15T10:42:09;47.60;;;34.27;;
4317;SDS011;2172;53.576;9.934;2023-04-15T10:44:38;50.07;;;33.77;;
4317;SDS011;2172;53.576;9.934;2023-04-15T10:47:12;42.40;;;31.43;;
4317;SDS011;2172;53.576;9.934;2023-04-15T10:49:43;45.00;;;33.13;;
4317;SDS011;2172;53.576;9.934;2023-04-15T10:52:12;39.40;;;30.30;;
4317;SDS011;2172;53.576;9.934;2023-04-15T10:54:42;42.83;;;30.40;;
4317;SDS011;2172;53.576;9.934;2023-04-15T10:57:14;39.33;;;30.10;;
4317;SDS011;2172;53.576;9.934;2023-04-15T11:02:46;35.80;;;28.30;;
4317;SDS011;2172;53.576;9.934;2023-04-15T11:05:17;36.13;;;27.70;;
4317;SDS011;2172;53.576;9.934;2023-04-15T11:07:50;37.20;;;27.53;;
4317;SDS011;2172;53.576;9.934;2023-04-15T11:13:20;32.93;;;26.67;;
4317;SDS011;2172;53.576;9.934;2023-04-15T11:16:00;32.13;;;26.00;;
4317;SDS011;2172;53.576;9.934;2023-04-15T11:18:33;31.00;;;23.70;;
4317;SDS011;2172;53.576;9.934;2023-04-15T11:21:02;26.10;;;22.80;;
4317;SDS011;2172;53.576;9.934;2023-04-15T11:23:35;22.43;;;20.13;;
4317;SDS011;2172;53.576;9.934;2023-04-15T11:26:05;21.90;;;18.90;;
4317;SDS011;2172;53.576;9.934;2023-04-15T11:28:38;20.70;;;16.87;;
4317;SDS011;2172;53.576;9.934;2023-04-15T11:31:07;19.70;;;17.17;;
4317;SDS011;2172;53.576;9.934;2023-04-15T11:33:37;18.47;;;16.40;;
4317;SDS011;2172;53.576;9.934;2023-04-15T11:36:12;17.53;;;15.70;;
4317;SDS011;2172;53.576;9.934;2023-04-15T11:38:43;21.10;;;16.40;;
4317;SDS011;2172;53.576;9.934;2023-04-15T11:41:12;17.77;;;16.07;;
4317;SDS011;2172;53.576;9.934;2023-04-15T11:43:39;16.43;;;14.53;;
4317;SDS011;2172;53.576;9.934;2023-04-15T11:46:07;20.23;;;17.83;;
4317;SDS011;2172;53.576;9.934;2023-04-15T11:48:35;20.03;;;15.90;;
4317;SDS011;2172;53.576;9.934;2023-04-15T11:51:07;19.23;;;17.17;;
4317;SDS011;2172;53.576;9.934;2023-04-15T11:53:35;18.93;;;16.77;;
4317;SDS011;2172;53.576;9.934;2023-04-15T11:56:05;17.17;;;15.37;;
4317;SDS011;2172;53.576;9.934;2023-04-15T11:58:33;17.70;;;15.90;;
4317;SDS011;2172;53.576;9.934;2023-04-15T12:01:03;17.93;;;16.03;;
4317;SDS011;2172;53.576;9.934;2023-04-15T12:03:35;17.77;;;15.77;;
4317;SDS011;2172;53.576;9.934;2023-04-15T12:06:14;15.80;;;14.20;;
4317;SDS011;2172;53.576;9.934;2023-04-15T12:08:47;17.17;;;15.37;;
4317;SDS011;2172;53.576;9.934;2023-04-15T12:11:15;16.37;;;14.67;;
4317;SDS011;2172;53.576;9.934;2023-04-15T12:13:43;16.13;;;14.47;;
4317;SDS011;2172;53.576;9.934;2023-04-15T12:16:11;16.53;;;14.77;;
4317;SDS011;2172;53.576;9.934;2023-04-15T12:18:41;16.90;;;15.13;;
4317;SDS011;2172;53.576;9.934;2023-04-15T12:21:11;18.47;;;16.47;;
4317;SDS011;2172;53.576;9.934;2023-04-15T12:23:46;18.53;;;16.60;;
4317;SDS011;2172;53.576;9.934;2023-04-15T12:26:15;18.90;;;16.73;;
4317;SDS011;2172;53.576;9.934;2023-04-15T12:28:43;17.43;;;15.53;;
4317;SDS011;2172;53.576;9.934;2023-04-15T12:31:11;16.80;;;15.10;;
4317;SDS011;2172;53.576;9.934;2023-04-15T12:33:38;17.23;;;15.43;;
4317;SDS011;2172;53.576;9.934;2023-04-15T12:36:07;16.37;;;14.63;;
4317;SDS011;2172;53.576;9.934;2023-04-15T12:38:35;18.83;;;15.03;;
4317;SDS011;2172;53.576;9.934;2023-04-15T12:41:02;19.60;;;15.33;;
4317;SDS011;2172;53.576;9.934;2023-04-15T12:43:30;16.00;;;14.40;;
4317;SDS011;2172;53.576;9.934;2023-04-15T12:45:58;16.07;;;14.40;;
4317;SDS011;2172;53.576;9.934;2023-04-15T12:48:26;18.07;;;16.10;;
4317;SDS011;2172;53.576;9.934;2023-04-15T12:50:55;18.00;;;16.10;;
4317;SDS011;2172;53.576;9.934;2023-04-15T12:53:22;17.47;;;14.47;;
4317;SDS011;2172;53.576;9.934;2023-04-15T12:55:50;17.87;;;15.70;;
4317;SDS011;2172;53.576;9.934;2023-04-15T12:58:18;15.73;;;14.23;;
4317;SDS011;2172;53.576;9.934;2023-04-15T13:00:46;24.40;;;16.23;;
4317;SDS011;2172;53.576;9.934;2023-04-15T13:03:14;17.53;;;15.73;;
4317;SDS011;2172;53.576;9.934;2023-04-15T13:05:42;17.30;;;15.27;;
4317;SDS011;2172;53.576;9.934;2023-04-15T13:08:11;17.17;;;15.47;;
4317;SDS011;2172;53.576;9.934;2023-04-15T13:10:38;15.97;;;14.27;;
4317;SDS011;2172;53.576;9.934;2023-04-15T13:13:06;17.93;;;16.13;;
4317;SDS011;2172;53.576;9.934;2023-04-15T13:15:34;17.70;;;15.10;;
4317;SDS011;2172;53.576;9.934;2023-04-15T13:18:02;16.10;;;14.50;;
4317;SDS011;2172;53.576;9.934;2023-04-15T13:20:32;17.27;;;15.20;;
4317;SDS011;2172;53.576;9.934;2023-04-15T13:22:59;17.20;;;15.40;;
4317;SDS011;2172;53.576;9.934;2023-04-15T13:25:28;16.33;;;14.50;;
4317;SDS011;2172;53.576;9.934;2023-04-15T13:27:55;16.80;;;14.57;;
4317;SDS011;2172;53.576;9.934;2023-04-15T13:30:23;16.40;;;14.30;;
4317;SDS011;2172;53.576;9.934;2023-04-15T13:32:51;14.63;;;13.23;;
4317;SDS011;2172;53.576;9.934;2023-04-15T13:35:19;16.53;;;13.67;;
4317;SDS011;2172;53.576;9.934;2023-04-15T13:37:47;17.50;;;15.03;;
4317;SDS011;2172;53.576;9.934;2023-04-15T13:40:14;15.30;;;13.70;;
4317;SDS011;2172;53.576;9.934;2023-04-15T13:42:43;14.20;;;12.80;;
4317;SDS011;2172;53.576;9.934;2023-04-15T13:45:11;15.17;;;13.77;;
4317;SDS011;2172;53.576;9.934;2023-04-15T13:47:39;16.40;;;14.50;;
4317;SDS011;2172;53.576;9.934;2023-04-15T13:50:06;18.80;;;14.47;;
4317;SDS011;2172;53.576;9.934;2023-04-15T13:52:34;16.60;;;15.00;;
4317;SDS011;2172;53.576;9.934;2023-04-15T13:55:02;16.97;;;13.50;;
4317;SDS011;2172;53.576;9.934;2023-04-15T13:57:30;16.93;;;15.17;;
4317;SDS011;2172;53.576;9.934;2023-04-15T13:59:59;14.63;;;13.13;;
4317;SDS011;2172;53.576;9.934;2023-04-15T14:02:31;16.37;;;14.67;;
4317;SDS011;2172;53.576;9.934;2023-04-15T14:04:59;17.47;;;13.43;;
4317;SDS011;2172;53.576;9.934;2023-04-15T14:07:27;15.57;;;13.90;;
4317;SDS011;2172;53.576;9.934;2023-04-15T14:09:55;15.97;;;12.10;;
4317;SDS011;2172;53.576;9.934;2023-04-15T14:12:23;12.47;;;11.27;;
4317;SDS011;2172;53.576;9.934;2023-04-15T14:14:50;13.30;;;11.90;;
4317;SDS011;2172;53.576;9.934;2023-04-15T14:17:19;16.47;;;13.40;;
4317;SDS011;2172;53.576;9.934;2023-04-15T14:19:47;14.00;;;12.60;;
4317;SDS011;2172;53.576;9.934;2023-04-15T14:22:14;13.00;;;11.70;;
4317;SDS011;2172;53.576;9.934;2023-04-15T14:24:43;12.93;;;11.73;;
4317;SDS011;2172;53.576;9.934;2023-04-15T14:27:12;14.80;;;12.67;;
4317;SDS011;2172;53.576;9.934;2023-04-15T14:29:40;17.60;;;13.33;;
4317;SDS011;2172;53.576;9.934;2023-04-15T14:32:11;14.40;;;12.90;;
4317;SDS011;2172;53.576;9.934;2023-04-15T14:34:40;15.17;;;12.73;;
4317;SDS011;2172;53.576;9.934;2023-04-15T14:37:07;14.10;;;12.63;;
4317;SDS011;2172;53.576;9.934;2023-04-15T14:39:35;14.17;;;12.77;;
4317;SDS011;2172;53.576;9.934;2023-04-15T14:42:02;15.43;;;13.03;;
4317;SDS011;2172;53.576;9.934;2023-04-15T14:44:30;12.90;;;11.60;;
4317;SDS011;2172;53.576;9.934;2023-04-15T14:46:57;14.30;;;12.53;;
4317;SDS011;2172;53.576;9.934;2023-04-15T14:49:25;15.80;;;12.93;;
4317;SDS011;2172;53.576;9.934;2023-04-15T14:51:54;14.43;;;12.50;;
4317;SDS011;2172;53.576;9.934;2023-04-15T14:54:21;13.47;;;12.20;;
4317;SDS011;2172;53.576;9.934;2023-04-15T14:56:49;13.53;;;12.23;;
4317;SDS011;2172;53.576;9.934;2023-04-15T14:59:16;13.90;;;12.50;;
4317;SDS011;2172;53.576;9.934;2023-04-15T15:01:44;13.03;;;11.60;;
4317;SDS011;2172;53.576;9.934;2023-04-15T15:04:11;12.80;;;11.40;;